Chandler Field
KAXN : now visible

Airfield :











YOU CAN JOIN US ON...

 
LOGIN :

Register | Disclaimer

   EN    FR    IT 

 









Legend :    VFR   Marginal VFR   IFR   Intensive IFR   Very Intensive IFR
Visi :
Ceiling :
>= 8 km
>= 3000ft
5 to 8 km
1000 to 3000 ft
1500m to 5 km
500 to 1000 ft
800 to 1500m
200 to 500 ft
< 800m
< 200 ft
Symbols :   Thunderstorms  Fog  Heavy snow  Heavy precipitations  Wind > 20 kt






- Airport Elevation : 1425 ft


KAXN - Chandler Field

CURRENT METAR :
  • 220253Z AUTO 28018G23KT 8SM -SN BKN012 OVC018 M04/M06 A2994 RMK AO2 PK WND 31029/0220 SLP170 P0000 60001 T10391056 51008

EXPIRED METARs :
  • 220240Z AUTO 30019G28KT 2 1/2SM -SN BR OVC014 M03/M06 A2994 RMK AO2 PK WND 31029/0220 P0000 T10331056
  • 220216Z AUTO 30018G26KT 2 1/2SM -SN BR FEW008 BKN018 OVC042 M02/M04 A2994 RMK AO2 PK WND 29026/0212 P0000 T10221039
  • 220204Z AUTO 28016G23KT 4SM -SN BR SCT008 BKN011 OVC041 M02/M03 A2993 RMK AO2 P0000 T10221033
  • 220200Z AUTO 28012G21KT 2SM -SN BR BKN008 BKN012 OVC041 M02/M03 A2993 RMK AO2 CIG 005V010 P0000 T10221033
  • 220143Z AUTO 28009KT 1 3/4SM -SN BR OVC008 M04/M05 A2994 RMK AO2 CIG 006V013 P0000 T10391050
  • 220130Z AUTO 25009KT 1 1/4SM -SN BR BKN010 OVC015 M04/M06 A2993 RMK AO2 CIG 007V012 P0000 T10441056
  • 220100Z AUTO 22013KT 2 1/2SM -SN BR BKN014 BKN018 OVC047 M06/M07 A2992 RMK AO2 P0000 T10561067
  • 220053Z AUTO 22012KT 3SM -SN BR OVC012 M06/M07 A2992 RMK AO2 SLP163 P0000 T10561067
  • 220045Z AUTO 22014KT 1 1/2SM -SN BR OVC012 M06/M07 A2992 RMK AO2 P0000 T10611067
  • 220024Z AUTO 22014KT 1 1/4SM -SN BR BKN012 OVC017 M06/M07 A2993 RMK AO2 P0000 T10611072
  • 212353Z AUTO 21015KT 2 1/2SM -SN BR FEW008 OVC014 M07/M08 A2993 RMK AO2 SNB30 SLP168 P0000 60000 I6001 T10671078 11067 21111 55002

TAF KAXN
Valid from the 22 at 00:00 until the 23 at 00:00 UTC


212337Z 2200/2224 21016G25KT 4SM BLSN BR OVC015
FM220300 28019G29KT 6SM BLSN BR BKN025
FM220700 31017G26KT P6SM BKN029
FM221100 31014G21KT P6SM BKN180
FM221900 28008KT P6SM BKN050
FM222200 29007KT 1SM -SN BR OVC016
KZMP FIR / North America



MET'MAP, your aeronautical weather chart ! - Copyright ORBIFLY December 2007 - Disclaimer

ORBIFLY MET'MAP TEAM :

Programming & Development : Alexandra Zaïnal
Concept & original design : Baudouin d'Aumeries
Assistance for programming : Marc-Olivier Méhu
Technical & hardware support : Manuel Goepfert

Contact : metmap@orbifly.com




SOURCES & CREDITS :

   NOAA       Earth
Advisory